Time;durP1;ratioP1;P1;durP2;ratioP2;P2;SDS_P1;SDS_P2;PMS_P1;PMS_P2;Temp;Humidity;BMP_temperature;BMP_pressure;BME280_temperature;BME280_humidity;BME280_pressure;Samples;Min_cycle;Max_cycle;Signal;HPM_P1;HPM_P2
2022/08/04 00:00:35;;;;;;;;;;;19.10;99.90;;;;;;4145367;28;20040;-55
2022/08/04 00:02:58;;;;;;;;;;;19.30;99.90;;;;;;4143748;28;19929;-55
2022/08/04 00:05:05;;;;;;;;;;;19.30;99.90;;;;;;4137691;28;20406;-54
2022/08/04 00:07:07;;;;;;;;;;;19.40;99.20;;;;;;4128910;28;19925;-54
2022/08/04 00:09:15;;;;;;;;;;;19.30;99.90;;;;;;4145684;28;19928;-54
2022/08/04 00:11:20;;;;;;;;;;;19.20;99.90;;;;;;4142985;28;19929;-55
2022/08/04 00:13:24;;;;;;;;;;;19.00;99.90;;;;;;4145049;28;19929;-56
2022/08/04 00:15:31;;;;;;;;;;;18.90;99.90;;;;;;4143736;28;20392;-55
2022/08/04 00:17:49;;;;;;;;;;;18.70;99.90;;;;;;4144366;28;20386;-56
2022/08/04 00:20:02;;;;;;;;;;;18.80;99.90;;;;;;4145197;28;19922;-54
2022/08/04 00:22:07;;;;;;;;;;;18.80;99.90;;;;;;4128913;28;19972;-56
2022/08/04 00:24:11;;;;;;;;;;;18.80;99.90;;;;;;4136192;28;20301;-55
2022/08/04 00:26:15;;;;;;;;;;;18.80;99.90;;;;;;4145591;28;19925;-54
2022/08/04 00:28:17;;;;;;;;;;;18.90;99.90;;;;;;4129891;28;20432;-54
2022/08/04 00:30:41;;;;;;;;;;;18.80;99.90;;;;;;4136857;28;19926;-54
2022/08/04 00:32:43;;;;;;;;;;;18.40;99.90;;;;;;4145295;28;19975;-54
2022/08/04 00:34:47;;;;;;;;;;;18.40;99.90;;;;;;4144743;28;19929;-55
2022/08/04 00:36:50;;;;;;;;;;;18.50;99.90;;;;;;4138385;28;20349;-55
2022/08/04 00:39:01;;;;;;;;;;;18.40;99.90;;;;;;4128848;28;20449;-55
2022/08/04 00:41:23;;;;;;;;;;;18.10;99.90;;;;;;4143931;28;20421;-56
2022/08/04 00:43:25;;;;;;;;;;;17.90;99.90;;;;;;4140993;28;19925;-56
2022/08/04 00:45:28;;;;;;;;;;;18.20;99.90;;;;;;4145078;28;19963;-55
2022/08/04 00:48:05;;;;;;;;;;;18.20;99.90;;;;;;4129003;28;19932;-55
2022/08/04 00:50:09;;;;;;;;;;;18.00;99.90;;;;;;4138441;28;19921;-54
2022/08/04 00:52:21;;;;;;;;;;;18.10;99.90;;;;;;4144529;28;20336;-56
2022/08/04 00:54:35;;;;;;;;;;;17.90;99.90;;;;;;4144931;28;19952;-54
2022/08/04 00:57:12;;;;;;;;;;;17.80;99.90;;;;;;4140620;28;19921;-55
2022/08/04 00:59:56;;;;;;;;;;;17.80;99.90;;;;;;4110239;28;20448;-54
2022/08/04 01:02:21;;;;;;;;;;;17.70;99.90;;;;;;4128367;28;19922;-55
2022/08/04 01:04:31;;;;;;;;;;;17.60;99.90;;;;;;4128582;28;19960;-54
2022/08/04 01:06:43;;;;;;;;;;;17.60;99.90;;;;;;4143701;28;19921;-55
2022/08/04 01:08:52;;;;;;;;;;;17.50;99.90;;;;;;4144402;28;19921;-55
2022/08/04 01:11:14;;;;;;;;;;;17.50;99.90;;;;;;4144913;28;19925;-54
2022/08/04 01:13:31;;;;;;;;;;;17.50;99.90;;;;;;4128705;28;20008;-54
2022/08/04 01:15:53;;;;;;;;;;;17.60;99.90;;;;;;4140957;28;19967;-55
2022/08/04 01:18:06;;;;;;;;;;;17.60;99.90;;;;;;4144347;28;19929;-55
2022/08/04 01:20:10;;;;;;;;;;;17.60;99.90;;;;;;4143233;28;19921;-55
2022/08/04 01:22:22;;;;;;;;;;;17.50;99.90;;;;;;4131598;28;20417;-54
2022/08/04 01:24:37;;;;;;;;;;;17.50;99.90;;;;;;4132895;28;19960;-55
2022/08/04 01:26:48;;;;;;;;;;;17.50;99.90;;;;;;4144725;28;19925;-54
2022/08/04 01:29:02;;;;;;;;;;;17.40;99.90;;;;;;4128053;28;20413;-54
2022/08/04 01:31:27;;;;;;;;;;;17.30;99.90;;;;;;4137217;28;20015;-55
2022/08/04 01:33:31;;;;;;;;;;;17.30;99.90;;;;;;4144363;28;19928;-55
2022/08/04 01:35:53;;;;;;;;;;;17.30;99.90;;;;;;4130262;28;20405;-55
2022/08/04 01:38:14;;;;;;;;;;;17.20;99.90;;;;;;4141861;28;20324;-54
2022/08/04 01:40:20;;;;;;;;;;;17.20;99.90;;;;;;4141220;28;20289;-55
2022/08/04 01:42:25;;;;;;;;;;;17.20;99.90;;;;;;4131630;28;19922;-55
2022/08/04 01:44:34;;;;;;;;;;;17.30;99.90;;;;;;4145154;28;19929;-55
2022/08/04 01:46:37;;;;;;;;;;;17.20;99.90;;;;;;4143968;28;19984;-55
2022/08/04 01:48:41;;;;;;;;;;;17.20;99.90;;;;;;4131183;28;19925;-55
2022/08/04 01:50:44;;;;;;;;;;;17.10;99.90;;;;;;4143800;28;19961;-54
2022/08/04 01:52:47;;;;;;;;;;;17.10;99.90;;;;;;4147228;28;19932;-56
2022/08/04 01:54:55;;;;;;;;;;;17.10;99.90;;;;;;4147630;28;19929;-55
2022/08/04 01:56:59;;;;;;;;;;;17.00;99.90;;;;;;4137271;28;19932;-54
2022/08/04 01:59:02;;;;;;;;;;;17.10;99.90;;;;;;4131993;28;19948;-55
2022/08/04 02:01:07;;;;;;;;;;;17.10;99.90;;;;;;4147140;28;19968;-56
2022/08/04 02:03:12;;;;;;;;;;;17.20;99.90;;;;;;4138903;28;19922;-55
2022/08/04 02:05:17;;;;;;;;;;;17.30;99.90;;;;;;4131161;28;20143;-55
2022/08/04 02:07:26;;;;;;;;;;;17.10;99.90;;;;;;4133402;28;20313;-55
2022/08/04 02:09:48;;;;;;;;;;;17.10;99.90;;;;;;4145880;28;20409;-55
2022/08/04 02:11:58;;;;;;;;;;;17.10;99.90;;;;;;4146981;28;19929;-56
2022/08/04 02:14:03;;;;;;;;;;;17.20;99.90;;;;;;4162541;28;19921;-55
2022/08/04 02:16:27;;;;;;;;;;;17.10;99.90;;;;;;4135367;28;19953;-54
2022/08/04 02:18:50;;;;;;;;;;;17.00;99.90;;;;;;4158600;28;20475;-55
2022/08/04 02:20:54;;;;;;;;;;;16.80;99.90;;;;;;4135826;28;19921;-55
2022/08/04 02:22:59;;;;;;;;;;;16.80;99.90;;;;;;4133028;28;19928;-55
2022/08/04 02:25:09;;;;;;;;;;;16.80;99.90;;;;;;4130740;28;20012;-55
2022/08/04 02:27:15;;;;;;;;;;;16.70;99.90;;;;;;4130679;28;20313;-57
2022/08/04 02:29:41;;;;;;;;;;;16.60;99.90;;;;;;4144201;28;19921;-55
2022/08/04 02:31:56;;;;;;;;;;;16.70;99.90;;;;;;4135470;28;19930;-55
2022/08/04 02:33:58;;;;;;;;;;;16.70;99.90;;;;;;4130884;28;20282;-55
2022/08/04 02:36:02;;;;;;;;;;;16.60;99.90;;;;;;4130873;28;20337;-55
2022/08/04 02:38:20;;;;;;;;;;;16.30;99.90;;;;;;4130687;28;19929;-56
2022/08/04 02:40:28;;;;;;;;;;;16.30;99.90;;;;;;4130913;28;19969;-55
2022/08/04 02:42:33;;;;;;;;;;;16.40;99.90;;;;;;4146938;28;19922;-55
2022/08/04 02:44:51;;;;;;;;;;;16.60;99.90;;;;;;4145346;28;20016;-55
2022/08/04 02:46:55;;;;;;;;;;;16.60;99.90;;;;;;4144004;28;19980;-56
2022/08/04 02:49:01;;;;;;;;;;;16.40;99.90;;;;;;4136994;28;19922;-55
2022/08/04 02:51:04;;;;;;;;;;;16.40;99.90;;;;;;4146404;28;19932;-55
2022/08/04 02:53:12;;;;;;;;;;;16.50;99.90;;;;;;4147110;28;20032;-55
2022/08/04 02:55:18;;;;;;;;;;;16.30;99.90;;;;;;4146825;28;19926;-56
2022/08/04 02:57:23;;;;;;;;;;;16.30;99.90;;;;;;4137886;28;19922;-56
2022/08/04 02:59:37;;;;;;;;;;;16.40;99.90;;;;;;4130440;28;20226;-55
2022/08/04 03:01:43;;;;;;;;;;;16.30;99.90;;;;;;4128874;28;19929;-54
2022/08/04 03:04:01;;;;;;;;;;;16.20;99.90;;;;;;4138957;28;19921;-55
2022/08/04 03:06:10;;;;;;;;;;;16.10;99.90;;;;;;4144751;28;20443;-57
2022/08/04 03:08:19;;;;;;;;;;;16.00;99.90;;;;;;4140447;28;20456;-55
2022/08/04 03:10:46;;;;;;;;;;;15.90;99.90;;;;;;4144728;28;19972;-55
2022/08/04 03:13:06;;;;;;;;;;;16.00;99.90;;;;;;4134177;28;20346;-54
2022/08/04 03:15:40;;;;;;;;;;;16.00;99.90;;;;;;4144845;28;20251;-55
2022/08/04 03:17:56;;;;;;;;;;;16.10;99.90;;;;;;4111436;28;19925;-56
2022/08/04 03:20:27;;;;;;;;;;;16.20;99.90;;;;;;4140466;28;19921;-55
2022/08/04 03:22:40;;;;;;;;;;;16.10;99.90;;;;;;4141070;28;19926;-54
2022/08/04 03:25:10;;;;;;;;;;;15.80;99.90;;;;;;4130107;28;19942;-55
2022/08/04 03:27:22;;;;;;;;;;;15.70;99.90;;;;;;4145824;28;19922;-55
2022/08/04 03:29:49;;;;;;;;;;;15.90;99.90;;;;;;4134324;28;20089;-55
2022/08/04 03:32:10;;;;;;;;;;;16.00;99.90;;;;;;4133192;28;19921;-56
2022/08/04 03:34:25;;;;;;;;;;;15.70;99.90;;;;;;4145992;28;20389;-55
2022/08/04 03:36:44;;;;;;;;;;;15.70;99.90;;;;;;4129900;28;20556;-55
2022/08/04 03:38:50;;;;;;;;;;;15.60;99.90;;;;;;4137716;28;19921;-56
2022/08/04 03:41:10;;;;;;;;;;;15.70;99.90;;;;;;4145622;28;19928;-55
2022/08/04 03:43:29;;;;;;;;;;;15.80;99.90;;;;;;4132674;28;19922;-55
2022/08/04 03:46:01;;;;;;;;;;;15.80;99.90;;;;;;4145558;28;19968;-56
2022/08/04 03:48:22;;;;;;;;;;;15.80;99.90;;;;;;4145659;28;19925;-55
2022/08/04 03:50:37;;;;;;;;;;;15.70;99.90;;;;;;4146103;28;20025;-56
2022/08/04 03:53:07;;;;;;;;;;;15.80;99.90;;;;;;4129707;28;19932;-56
2022/08/04 03:55:11;;;;;;;;;;;15.70;99.90;;;;;;4141134;28;20704;-56
2022/08/04 03:57:28;;;;;;;;;;;15.60;99.90;;;;;;4143321;28;19925;-55
2022/08/04 03:59:40;;;;;;;;;;;15.60;99.90;;;;;;4129269;28;19929;-56
2022/08/04 04:01:51;;;;;;;;;;;15.70;99.90;;;;;;4143022;28;19925;-55
2022/08/04 04:04:11;;;;;;;;;;;15.60;99.90;;;;;;4139212;28;19996;-57
2022/08/04 04:06:18;;;;;;;;;;;15.60;99.90;;;;;;4129429;28;19922;-54
2022/08/04 04:08:24;;;;;;;;;;;15.70;99.90;;;;;;4149158;28;20439;-56
2022/08/04 04:10:33;;;;;;;;;;;15.80;99.90;;;;;;4145689;28;19929;-55
2022/08/04 04:12:54;;;;;;;;;;;15.80;99.90;;;;;;4145350;28;20393;-55
2022/08/04 04:15:06;;;;;;;;;;;15.70;99.90;;;;;;4129037;28;20409;-56
2022/08/04 04:17:28;;;;;;;;;;;15.50;99.90;;;;;;4134447;28;20028;-55
2022/08/04 04:19:47;;;;;;;;;;;15.50;99.90;;;;;;4138325;28;20301;-55
2022/08/04 04:22:01;;;;;;;;;;;15.50;99.90;;;;;;4145328;28;19972;-56
2022/08/04 04:24:26;;;;;;;;;;;15.50;99.90;;;;;;4140038;28;19956;-56
2022/08/04 04:26:55;;;;;;;;;;;15.40;99.90;;;;;;4129591;28;19921;-56
2022/08/04 04:29:33;;;;;;;;;;;15.40;99.90;;;;;;4128815;28;19928;-56
2022/08/04 04:31:46;;;;;;;;;;;15.40;99.90;;;;;;4126492;28;19929;-56
2022/08/04 04:34:27;;;;;;;;;;;15.30;99.90;;;;;;4131449;28;19968;-56
2022/08/04 04:36:52;;;;;;;;;;;15.30;99.90;;;;;;4142162;28;19922;-55
2022/08/04 04:38:57;;;;;;;;;;;15.30;99.90;;;;;;4115945;28;19964;-57
2022/08/04 04:41:08;;;;;;;;;;;15.40;99.90;;;;;;4126583;28;20455;-55
2022/08/04 04:43:14;;;;;;;;;;;15.30;99.90;;;;;;4131399;28;19948;-56
2022/08/04 04:45:33;;;;;;;;;;;15.30;99.90;;;;;;4144656;28;19932;-55
2022/08/04 04:47:39;;;;;;;;;;;15.30;99.90;;;;;;4144645;28;20438;-55
2022/08/04 04:49:58;;;;;;;;;;;15.30;99.90;;;;;;4133889;28;19925;-55
2022/08/04 04:52:08;;;;;;;;;;;15.40;99.90;;;;;;4145436;28;19921;-55
2022/08/04 04:54:10;;;;;;;;;;;15.50;99.90;;;;;;4145063;28;20350;-56
2022/08/04 04:56:18;;;;;;;;;;;15.50;99.90;;;;;;4129759;28;19953;-56
2022/08/04 04:58:20;;;;;;;;;;;15.60;99.90;;;;;;4135100;28;19922;-57
2022/08/04 05:00:46;;;;;;;;;;;15.70;99.90;;;;;;4143575;28;19921;-55
2022/08/04 05:02:59;;;;;;;;;;;15.70;99.90;;;;;;4128304;28;20044;-56
2022/08/04 05:05:40;;;;;;;;;;;15.70;99.90;;;;;;4140826;28;19932;-55
2022/08/04 05:08:09;;;;;;;;;;;15.60;99.90;;;;;;4144731;28;19925;-55
2022/08/04 05:10:48;;;;;;;;;;;15.60;99.90;;;;;;4137584;28;19925;-55
2022/08/04 05:13:09;;;;;;;;;;;15.70;99.90;;;;;;4140287;28;19926;-56
2022/08/04 05:15:34;;;;;;;;;;;15.70;99.90;;;;;;4141611;28;20388;-56
2022/08/04 05:17:42;;;;;;;;;;;15.70;99.90;;;;;;4142231;28;19925;-55
2022/08/04 05:19:57;;;;;;;;;;;15.70;99.90;;;;;;4144420;28;19967;-56
2022/08/04 05:22:03;;;;;;;;;;;15.80;99.90;;;;;;4144539;28;19921;-56
2022/08/04 05:24:10;;;;;;;;;;;15.80;99.90;;;;;;4150098;28;20432;-56
2022/08/04 05:26:15;;;;;;;;;;;15.80;99.90;;;;;;4144405;28;19988;-56
2022/08/04 05:28:32;;;;;;;;;;;15.80;99.90;;;;;;4128310;28;20277;-56
2022/08/04 05:30:47;;;;;;;;;;;15.80;99.90;;;;;;4137815;28;19968;-56
2022/08/04 05:32:54;;;;;;;;;;;15.90;99.90;;;;;;4143025;28;20202;-55
2022/08/04 05:35:07;;;;;;;;;;;15.90;99.90;;;;;;4127233;28;19926;-56
2022/08/04 05:37:13;;;;;;;;;;;16.00;99.90;;;;;;4139232;28;19921;-56
2022/08/04 05:39:23;;;;;;;;;;;16.00;99.90;;;;;;4144517;28;20157;-56
2022/08/04 05:41:27;;;;;;;;;;;16.10;99.90;;;;;;4142677;28;19925;-56
2022/08/04 05:43:45;;;;;;;;;;;16.10;99.90;;;;;;4139087;28;19929;-56
2022/08/04 05:46:08;;;;;;;;;;;16.30;99.90;;;;;;4143911;28;19979;-56
2022/08/04 05:48:11;;;;;;;;;;;16.30;99.90;;;;;;4144270;28;19925;-55
2022/08/04 05:50:16;;;;;;;;;;;16.50;99.90;;;;;;4139573;28;19921;-56
2022/08/04 05:52:18;;;;;;;;;;;16.60;99.90;;;;;;4144132;28;19925;-57
2022/08/04 05:54:41;;;;;;;;;;;16.70;99.90;;;;;;4144253;28;19933;-56
2022/08/04 05:56:44;;;;;;;;;;;16.90;99.90;;;;;;4129740;28;19984;-57
2022/08/04 05:58:51;;;;;;;;;;;17.00;99.90;;;;;;4133857;28;19948;-56
2022/08/04 06:00:54;;;;;;;;;;;17.10;99.90;;;;;;4144466;28;20397;-56
2022/08/04 06:02:57;;;;;;;;;;;17.20;99.90;;;;;;4130980;28;20424;-57
2022/08/04 06:05:04;;;;;;;;;;;17.30;99.90;;;;;;4131985;28;19968;-56
2022/08/04 06:07:09;;;;;;;;;;;17.40;99.90;;;;;;4144436;28;20408;-56
2022/08/04 06:09:13;;;;;;;;;;;17.50;99.90;;;;;;4143608;28;19968;-56
2022/08/04 06:11:18;;;;;;;;;;;17.60;99.90;;;;;;4144077;28;20420;-56
2022/08/04 06:13:24;;;;;;;;;;;17.70;99.90;;;;;;4143605;28;20816;-56
2022/08/04 06:15:49;;;;;;;;;;;18.10;99.90;;;;;;4142315;28;19926;-58
2022/08/04 06:17:54;;;;;;;;;;;18.50;99.90;;;;;;4143356;28;20331;-56
2022/08/04 06:20:17;;;;;;;;;;;18.90;99.90;;;;;;4143589;28;19947;-58
2022/08/04 06:22:25;;;;;;;;;;;19.40;99.90;;;;;;4131531;28;19933;-56
2022/08/04 06:24:29;;;;;;;;;;;19.30;99.90;;;;;;4146675;28;19925;-56
2022/08/04 06:26:34;;;;;;;;;;;19.20;99.90;;;;;;4146413;28;19968;-56
2022/08/04 06:28:48;;;;;;;;;;;19.30;99.90;;;;;;4145040;28;19968;-58
2022/08/04 06:30:53;;;;;;;;;;;19.40;99.90;;;;;;4137118;28;19961;-56
2022/08/04 06:32:59;;;;;;;;;;;19.50;99.90;;;;;;4131355;28;19925;-56
2022/08/04 06:35:06;;;;;;;;;;;19.50;99.90;;;;;;4146399;28;19925;-57
2022/08/04 06:37:12;;;;;;;;;;;19.60;99.90;;;;;;4143919;28;19922;-57
2022/08/04 06:39:34;;;;;;;;;;;20.00;99.90;;;;;;4130444;28;20365;-57
2022/08/04 06:41:43;;;;;;;;;;;20.40;99.90;;;;;;4130493;28;20242;-56
2022/08/04 06:43:58;;;;;;;;;;;20.40;99.90;;;;;;4139482;28;20309;-56
2022/08/04 06:46:03;;;;;;;;;;;20.50;99.90;;;;;;4146482;28;19968;-56
2022/08/04 06:48:13;;;;;;;;;;;20.60;99.90;;;;;;4146778;28;20312;-56
2022/08/04 06:50:23;;;;;;;;;;;20.70;99.90;;;;;;4151828;28;19928;-56
2022/08/04 06:52:48;;;;;;;;;;;21.00;99.90;;;;;;4143200;28;20392;-57
2022/08/04 06:54:54;;;;;;;;;;;21.20;99.90;;;;;;4130523;28;19965;-57
2022/08/04 06:56:57;;;;;;;;;;;21.30;99.90;;;;;;4130427;28;19929;-57
2022/08/04 06:59:00;;;;;;;;;;;21.70;99.90;;;;;;4132118;28;19922;-56
2022/08/04 07:01:04;;;;;;;;;;;21.80;99.90;;;;;;4146461;28;19925;-56
2022/08/04 07:03:07;;;;;;;;;;;21.90;99.90;;;;;;4136602;28;20376;-57
2022/08/04 07:05:15;;;;;;;;;;;21.80;99.90;;;;;;4131183;28;19929;-56
2022/08/04 07:07:18;;;;;;;;;;;22.00;99.90;;;;;;4146344;28;19925;-57
2022/08/04 07:09:22;;;;;;;;;;;22.10;99.80;;;;;;4145969;28;19932;-57
2022/08/04 07:11:26;;;;;;;;;;;22.30;99.50;;;;;;4146132;28;19960;-58
2022/08/04 07:13:29;;;;;;;;;;;22.50;97.30;;;;;;4145958;28;19930;-57
2022/08/04 07:15:34;;;;;;;;;;;22.50;97.70;;;;;;4138656;28;19922;-56
2022/08/04 07:17:37;;;;;;;;;;;22.70;97.50;;;;;;4134190;28;19922;-57
2022/08/04 07:19:44;;;;;;;;;;;22.90;98.10;;;;;;4151238;28;19921;-56
2022/08/04 07:21:50;;;;;;;;;;;23.10;98.00;;;;;;4139698;28;19975;-58
2022/08/04 07:24:14;;;;;;;;;;;23.40;97.10;;;;;;4129913;28;20290;-56
2022/08/04 07:26:18;;;;;;;;;;;23.50;97.00;;;;;;4129924;28;19961;-57
2022/08/04 07:28:24;;;;;;;;;;;23.70;96.20;;;;;;4137422;28;19944;-57
2022/08/04 07:30:28;;;;;;;;;;;23.80;96.90;;;;;;4145542;28;20398;-57
2022/08/04 07:32:31;;;;;;;;;;;24.10;96.60;;;;;;4145387;28;19925;-56
2022/08/04 07:34:43;;;;;;;;;;;24.20;95.90;;;;;;4139685;28;20000;-57
2022/08/04 07:36:47;;;;;;;;;;;24.30;95.10;;;;;;4130036;28;19925;-57
2022/08/04 07:38:52;;;;;;;;;;;24.40;94.80;;;;;;4144592;28;19925;-56
2022/08/04 07:40:55;;;;;;;;;;;24.60;94.10;;;;;;4138200;28;19968;-57
2022/08/04 07:42:59;;;;;;;;;;;24.80;94.30;;;;;;4129566;28;19958;-56
2022/08/04 07:45:01;;;;;;;;;;;24.90;93.80;;;;;;4144334;28;20063;-56
2022/08/04 07:47:05;;;;;;;;;;;25.00;92.80;;;;;;4141653;28;19921;-56
2022/08/04 07:49:09;;;;;;;;;;;25.50;93.90;;;;;;4129444;28;20301;-57
2022/08/04 07:51:12;;;;;;;;;;;25.70;93.90;;;;;;4145678;28;20305;-56
2022/08/04 07:53:14;;;;;;;;;;;26.10;93.90;;;;;;4143321;28;19980;-56
2022/08/04 07:55:38;;;;;;;;;;;26.30;91.80;;;;;;4129529;28;19928;-56
2022/08/04 07:57:41;;;;;;;;;;;26.40;92.30;;;;;;4141546;28;19930;-56
2022/08/04 07:59:44;;;;;;;;;;;26.20;91.70;;;;;;4142718;28;19932;-56
2022/08/04 08:01:52;;;;;;;;;;;26.20;94.00;;;;;;4129306;28;19984;-56
2022/08/04 08:03:57;;;;;;;;;;;26.70;92.90;;;;;;4138919;28;20437;-56
2022/08/04 08:06:02;;;;;;;;;;;27.00;93.10;;;;;;4142417;28;19928;-57
2022/08/04 08:08:25;;;;;;;;;;;26.90;93.10;;;;;;4140339;28;19921;-57
2022/08/04 08:10:28;;;;;;;;;;;27.00;92.70;;;;;;4133490;28;20068;-57
2022/08/04 08:12:30;;;;;;;;;;;27.40;92.20;;;;;;4142840;28;20432;-58
2022/08/04 08:14:41;;;;;;;;;;;27.30;90.60;;;;;;4144997;28;19921;-58
2022/08/04 08:16:45;;;;;;;;;;;27.40;91.30;;;;;;4133362;28;19926;-58
2022/08/04 08:18:49;;;;;;;;;;;27.70;92.40;;;;;;4142542;28;20412;-58
2022/08/04 08:20:52;;;;;;;;;;;28.00;91.70;;;;;;4145171;28;19965;-57
2022/08/04 08:22:55;;;;;;;;;;;27.90;91.90;;;;;;4134809;28;20366;-56
2022/08/04 08:24:59;;;;;;;;;;;27.80;91.10;;;;;;4144142;28;20222;-57
2022/08/04 08:27:03;;;;;;;;;;;28.00;91.90;;;;;;4140335;28;19925;-56
2022/08/04 08:29:08;;;;;;;;;;;28.20;91.70;;;;;;4145102;28;20377;-55
2022/08/04 08:31:13;;;;;;;;;;;28.30;90.50;;;;;;4143722;28;19983;-58
2022/08/04 08:33:16;;;;;;;;;;;28.50;91.20;;;;;;4129132;28;20153;-57
2022/08/04 08:35:23;;;;;;;;;;;28.60;90.80;;;;;;4135712;28;19995;-59
2022/08/04 08:37:49;;;;;;;;;;;29.10;91.30;;;;;;4143627;28;19995;-57
2022/08/04 08:39:58;;;;;;;;;;;29.10;91.50;;;;;;4128717;28;19936;-57
2022/08/04 08:42:19;;;;;;;;;;;29.60;91.50;;;;;;4137964;28;19921;-57
2022/08/04 08:44:42;;;;;;;;;;;29.90;90.20;;;;;;4144002;28;19921;-57
2022/08/04 08:47:02;;;;;;;;;;;29.90;88.70;;;;;;4145667;28;19956;-56
2022/08/04 08:49:18;;;;;;;;;;;29.80;89.00;;;;;;4129868;28;20016;-57
2022/08/04 08:51:47;;;;;;;;;;;30.00;87.50;;;;;;4139310;28;19925;-56
2022/08/04 08:53:55;;;;;;;;;;;30.60;88.90;;;;;;4141385;28;20257;-57
2022/08/04 08:56:31;;;;;;;;;;;30.90;85.80;;;;;;4139543;28;19980;-57
2022/08/04 08:58:41;;;;;;;;;;;30.90;85.40;;;;;;4090196;29;20017;-56
2022/08/04 09:00:50;;;;;;;;;;;31.10;86.70;;;;;;4093335;29;19923;-57
2022/08/04 09:03:04;;;;;;;;;;;31.30;88.00;;;;;;4093688;29;20009;-58
2022/08/04 09:05:17;;;;;;;;;;;31.50;87.60;;;;;;4093798;29;19926;-57
2022/08/04 09:07:31;;;;;;;;;;;31.90;90.00;;;;;;4094185;29;19926;-56
2022/08/04 09:09:35;;;;;;;;;;;31.90;85.30;;;;;;4092590;29;19977;-58
2022/08/04 09:11:45;;;;;;;;;;;32.00;83.00;;;;;;4086608;29;19923;-57
2022/08/04 09:13:51;;;;;;;;;;;32.00;83.40;;;;;;4086235;29;20363;-56
2022/08/04 09:16:22;;;;;;;;;;;32.20;83.30;;;;;;4093656;29;20026;-57
2022/08/04 09:18:43;;;;;;;;;;;32.10;83.50;;;;;;4087778;29;19931;-57
2022/08/04 09:20:48;;;;;;;;;;;31.80;81.90;;;;;;4092786;29;19929;-57
2022/08/04 09:22:58;;;;;;;;;;;32.10;85.30;;;;;;4090918;29;20616;-57
2022/08/04 09:25:11;;;;;;;;;;;32.30;79.90;;;;;;4086279;29;19922;-58
2022/08/04 09:27:27;;;;;;;;;;;32.30;79.00;;;;;;4087355;29;19929;-57
2022/08/04 09:29:36;;;;;;;;;;;32.40;81.30;;;;;;4088679;29;20712;-57
2022/08/04 09:31:45;;;;;;;;;;;32.50;80.90;;;;;;4088663;29;19923;-56
2022/08/04 09:34:10;;;;;;;;;;;33.10;83.10;;;;;;4100267;28;19995;-57
2022/08/04 09:36:25;;;;;;;;;;;33.10;80.90;;;;;;4135838;28;19929;-57
2022/08/04 09:38:40;;;;;;;;;;;33.40;79.40;;;;;;4133245;28;20053;-57
2022/08/04 09:40:47;;;;;;;;;;;33.40;77.70;;;;;;4138297;28;19929;-57
2022/08/04 09:42:55;;;;;;;;;;;33.10;78.80;;;;;;4132165;28;19926;-58
2022/08/04 09:45:08;;;;;;;;;;;33.20;76.70;;;;;;4134239;28;20221;-57
2022/08/04 09:47:32;;;;;;;;;;;33.10;74.90;;;;;;4143104;28;19922;-57
2022/08/04 09:49:59;;;;;;;;;;;33.20;76.60;;;;;;4134217;28;19921;-57
2022/08/04 09:52:20;;;;;;;;;;;33.50;76.20;;;;;;4143438;28;19922;-57
2022/08/04 09:54:44;;;;;;;;;;;33.80;77.80;;;;;;4151323;28;19940;-56
2022/08/04 09:57:02;;;;;;;;;;;34.20;77.90;;;;;;4145080;28;19925;-58
2022/08/04 09:59:37;;;;;;;;;;;34.20;73.60;;;;;;4136752;28;19932;-58
2022/08/04 10:01:43;;;;;;;;;;;34.20;74.00;;;;;;4113017;28;19922;-57
2022/08/04 10:03:57;;;;;;;;;;;34.40;72.80;;;;;;4136033;28;19922;-58
2022/08/04 10:06:03;;;;;;;;;;;34.40;74.20;;;;;;4142935;28;19933;-56
2022/08/04 10:08:08;;;;;;;;;;;34.40;74.50;;;;;;4139968;28;20676;-58
2022/08/04 10:10:25;;;;;;;;;;;34.20;71.60;;;;;;4134135;28;20037;-57
2022/08/04 10:12:51;;;;;;;;;;;34.40;72.10;;;;;;4135589;28;19992;-56
2022/08/04 10:15:30;;;;;;;;;;;34.40;72.70;;;;;;4145569;28;19933;-57
2022/08/04 10:17:53;;;;;;;;;;;34.50;75.30;;;;;;4103647;28;19933;-57
2022/08/04 10:20:13;;;;;;;;;;;34.30;71.30;;;;;;4134898;28;20408;-58
2022/08/04 10:22:36;;;;;;;;;;;34.50;70.50;;;;;;4141814;28;20158;-56
2022/08/04 10:25:12;;;;;;;;;;;34.50;69.60;;;;;;4143709;28;19951;-57
2022/08/04 10:28:00;;;;;;;;;;;34.70;69.30;;;;;;4135893;28;20019;-56
2022/08/04 10:30:10;;;;;;;;;;;34.90;71.60;;;;;;4142116;28;19922;-57
2022/08/04 10:32:22;;;;;;;;;;;35.20;70.30;;;;;;4146943;28;19944;-57
2022/08/04 10:34:38;;;;;;;;;;;35.70;71.10;;;;;;4131931;28;20258;-57
2022/08/04 10:37:00;;;;;;;;;;;35.00;66.20;;;;;;4139203;28;19921;-57
2022/08/04 10:39:09;;;;;;;;;;;35.10;68.90;;;;;;4135345;28;19929;-57
2022/08/04 10:41:20;;;;;;;;;;;35.00;69.80;;;;;;4144999;28;19921;-57
2022/08/04 10:43:34;;;;;;;;;;;35.10;66.90;;;;;;4139560;28;19932;-57
2022/08/04 10:45:44;;;;;;;;;;;35.00;68.90;;;;;;4145275;28;20234;-56
2022/08/04 10:47:58;;;;;;;;;;;35.10;68.90;;;;;;4145814;28;19922;-58
2022/08/04 10:50:01;;;;;;;;;;;35.00;72.00;;;;;;4134724;28;19925;-57
2022/08/04 10:52:06;;;;;;;;;;;34.50;69.60;;;;;;4134559;28;20397;-57
2022/08/04 10:54:18;;;;;;;;;;;34.60;69.80;;;;;;4136715;28;20429;-58
2022/08/04 10:56:28;;;;;;;;;;;34.30;70.40;;;;;;4142596;28;20488;-57
2022/08/04 10:58:39;;;;;;;;;;;34.40;68.80;;;;;;4136278;28;19936;-57
2022/08/04 11:00:55;;;;;;;;;;;34.20;70.90;;;;;;4139294;28;19965;-57
2022/08/04 11:03:14;;;;;;;;;;;34.10;68.60;;;;;;4145036;28;19936;-58
2022/08/04 11:05:38;;;;;;;;;;;34.40;68.20;;;;;;4138395;28;19932;-57
2022/08/04 11:07:47;;;;;;;;;;;34.30;66.70;;;;;;4133423;28;20407;-56
2022/08/04 11:09:50;;;;;;;;;;;34.20;67.90;;;;;;4141735;28;19933;-56
2022/08/04 11:11:55;;;;;;;;;;;34.50;65.60;;;;;;4144561;28;19987;-58
2022/08/04 11:14:12;;;;;;;;;;;34.60;65.20;;;;;;4146165;28;19929;-57
2022/08/04 11:16:42;;;;;;;;;;;34.60;63.80;;;;;;4144899;28;19948;-58
2022/08/04 11:19:07;;;;;;;;;;;34.50;65.00;;;;;;4140095;28;19921;-56
2022/08/04 11:21:14;;;;;;;;;;;34.50;64.70;;;;;;4144678;28;19925;-58
2022/08/04 11:23:18;;;;;;;;;;;34.90;69.50;;;;;;4129687;28;19932;-56
2022/08/04 11:25:27;;;;;;;;;;;35.00;67.00;;;;;;4144896;28;20000;-57
2022/08/04 11:28:04;;;;;;;;;;;35.20;67.60;;;;;;4138880;28;19925;-56
2022/08/04 11:30:08;;;;;;;;;;;35.30;64.20;;;;;;4129958;28;19922;-57
2022/08/04 11:32:20;;;;;;;;;;;34.60;66.60;;;;;;4144323;28;19929;-56
2022/08/04 11:34:26;;;;;;;;;;;34.60;65.20;;;;;;4134729;28;19988;-57
2022/08/04 11:36:53;;;;;;;;;;;34.50;68.00;;;;;;4133324;28;19925;-58
2022/08/04 11:39:07;;;;;;;;;;;34.10;66.80;;;;;;4144382;28;19922;-57
2022/08/04 11:41:11;;;;;;;;;;;33.90;67.00;;;;;;4133950;28;19937;-57
2022/08/04 11:43:18;;;;;;;;;;;34.10;67.50;;;;;;4140921;28;19991;-56
2022/08/04 11:45:44;;;;;;;;;;;34.20;64.50;;;;;;4134653;28;19977;-56
2022/08/04 11:47:50;;;;;;;;;;;34.10;65.40;;;;;;4143896;28;20273;-56
2022/08/04 11:49:57;;;;;;;;;;;33.90;65.50;;;;;;4143843;28;20021;-57
2022/08/04 11:52:02;;;;;;;;;;;33.90;66.20;;;;;;4160416;28;19920;-56
2022/08/04 11:54:06;;;;;;;;;;;33.70;65.90;;;;;;4145033;28;19962;-56
2022/08/04 11:56:16;;;;;;;;;;;33.70;68.10;;;;;;4138411;28;20365;-56
2022/08/04 11:58:40;;;;;;;;;;;34.10;65.00;;;;;;4129782;28;19925;-56
2022/08/04 12:00:54;;;;;;;;;;;34.30;65.80;;;;;;4143647;28;19951;-57
2022/08/04 12:03:14;;;;;;;;;;;34.50;66.60;;;;;;4144189;28;19972;-57
2022/08/04 12:05:20;;;;;;;;;;;34.40;66.60;;;;;;4144502;28;19929;-57
2022/08/04 12:07:49;;;;;;;;;;;34.20;66.10;;;;;;4133233;28;19929;-56
2022/08/04 12:10:12;;;;;;;;;;;34.70;66.50;;;;;;4142062;28;19929;-56
2022/08/04 12:12:24;;;;;;;;;;;35.10;66.20;;;;;;4136419;28;19925;-56
2022/08/04 12:14:50;;;;;;;;;;;35.20;65.70;;;;;;4128705;28;19984;-56
2022/08/04 12:16:59;;;;;;;;;;;34.90;63.80;;;;;;4129123;28;20324;-57
2022/08/04 12:19:08;;;;;;;;;;;34.70;64.20;;;;;;4159499;28;19971;-57
2022/08/04 12:21:22;;;;;;;;;;;34.70;65.40;;;;;;4142465;28;19936;-57
2022/08/04 12:23:34;;;;;;;;;;;34.90;64.40;;;;;;4129190;28;19929;-57
2022/08/04 12:25:39;;;;;;;;;;;35.40;66.20;;;;;;4143417;28;19926;-57
2022/08/04 12:27:52;;;;;;;;;;;35.70;64.20;;;;;;4140962;28;19944;-56
2022/08/04 12:29:56;;;;;;;;;;;35.30;65.60;;;;;;4140357;28;19925;-57
2022/08/04 12:32:20;;;;;;;;;;;35.30;66.20;;;;;;4132006;28;19925;-57
2022/08/04 12:34:30;;;;;;;;;;;35.20;62.20;;;;;;4134328;28;19925;-58
2022/08/04 12:36:54;;;;;;;;;;;34.90;63.40;;;;;;4131615;28;19922;-58
2022/08/04 12:39:09;;;;;;;;;;;34.80;62.30;;;;;;4128751;28;20471;-57
2022/08/04 12:41:14;;;;;;;;;;;34.90;63.90;;;;;;4128105;28;19932;-58
2022/08/04 12:43:29;;;;;;;;;;;36.00;67.60;;;;;;4132310;28;19921;-57
2022/08/04 12:45:32;;;;;;;;;;;36.40;63.20;;;;;;4142202;28;19921;-57
2022/08/04 12:47:40;;;;;;;;;;;36.50;61.10;;;;;;4149578;28;19959;-57
2022/08/04 12:49:46;;;;;;;;;;;36.70;61.80;;;;;;4144702;28;19925;-57